Time,TemperatureF,DewpointF,PressureIn,WindDirection,WindDirectionDegrees,WindSpeedMPH,WindSpeedGustMPH,Humidity,HourlyPrecipIn,Conditions,Clouds,dailyrainin,SoftwareType,DateUTC
2013-02-01 00:10:00,29.3,19.0,29.58,WNW,296,4.0,4.0,65,0.00,,,0.00,Wunderground v.1.15,2013-02-01 05:10:00,
2013-02-01 00:20:00,29.3,18.6,29.58,SW,231,5.0,5.0,64,0.00,,,0.00,Wunderground v.1.15,2013-02-01 05:20:00,
2013-02-01 00:30:00,29.2,18.2,29.59,NW,309,4.0,8.0,63,0.00,,,0.00,Wunderground v.1.15,2013-02-01 05:30:00,
2013-02-01 00:40:00,29.4,17.2,29.59,West,261,5.0,8.0,60,0.00,,,0.00,Wunderground v.1.15,2013-02-01 05:40:00,
2013-02-01 00:49:00,29.4,15.6,29.59,WNW,302,6.0,6.0,56,0.00,,,0.00,Wunderground v.1.15,2013-02-01 05:49:00,
2013-02-01 01:00:00,29.3,15.1,29.60,NW,315,4.0,4.0,55,0.00,,,0.00,Wunderground v.1.15,2013-02-01 06:00:00,
2013-02-01 01:10:00,29.4,14.8,29.59,West,280,6.0,6.0,54,0.00,,,0.00,Wunderground v.1.15,2013-02-01 06:10:00,
2013-02-01 01:20:00,29.3,15.1,29.60,WNW,296,5.0,5.0,55,0.00,,,0.00,Wunderground v.1.15,2013-02-01 06:20:00,
2013-02-01 01:30:00,29.3,13.8,29.60,NW,320,6.0,6.0,52,0.00,,,0.00,Wunderground v.1.15,2013-02-01 06:30:00,
2013-02-01 01:40:00,29.3,14.3,29.61,WNW,285,7.0,7.0,53,0.00,,,0.00,Wunderground v.1.15,2013-02-01 06:40:00,
2013-02-01 01:50:00,29.0,14.0,29.61,West,270,4.0,4.0,53,0.00,,,0.00,Wunderground v.1.15,2013-02-01 06:50:00,
2013-02-01 02:00:00,28.9,13.9,29.61,NW,319,3.0,3.0,53,0.00,,,0.00,Wunderground v.1.15,2013-02-01 07:00:00,
2013-02-01 02:29:00,28.8,12.5,29.62,North,355,5.0,7.0,50,0.00,,,0.00,Wunderground v.1.15,2013-02-01 07:29:00,
2013-02-01 02:50:00,28.9,11.6,29.63,West,270,7.0,7.0,48,0.00,,,0.00,Wunderground v.1.15,2013-02-01 07:50:00,
2013-02-01 03:10:00,28.6,12.3,29.63,West,265,4.0,4.0,50,0.00,,,0.00,Wunderground v.1.15,2013-02-01 08:10:00,
2013-02-01 03:19:00,28.4,12.1,29.62,West,269,5.0,9.0,50,0.00,,,0.00,Wunderground v.1.15,2013-02-01 08:19:00,
2013-02-01 03:30:00,28.3,12.0,29.63,West,267,5.0,8.0,50,0.00,,,0.00,Wunderground v.1.15,2013-02-01 08:30:00,
2013-02-01 03:39:00,28.2,11.9,29.63,West,279,5.0,5.0,50,0.00,,,0.00,Wunderground v.1.15,2013-02-01 08:39:00,
2013-02-01 03:50:00,28.2,11.5,29.64,NW,318,5.0,9.0,49,0.00,,,0.00,Wunderground v.1.15,2013-02-01 08:50:00,
2013-02-01 03:59:00,28.1,11.8,29.64,WSW,258,5.0,5.0,50,0.00,,,0.00,Wunderground v.1.15,2013-02-01 08:59:00,
2013-02-01 04:10:00,27.9,11.2,29.65,WSW,252,4.0,4.0,49,0.00,,,0.00,Wunderground v.1.15,2013-02-01 09:10:00,
2013-02-01 04:20:00,27.8,11.1,29.65,WSW,254,4.0,4.0,49,0.00,,,0.00,Wunderground v.1.15,2013-02-01 09:20:00,
2013-02-01 04:29:00,27.8,11.1,29.65,NW,305,5.0,9.0,49,0.00,,,0.00,Wunderground v.1.15,2013-02-01 09:29:00,
2013-02-01 04:40:00,27.7,10.5,29.65,WNW,284,4.0,4.0,48,0.00,,,0.00,Wunderground v.1.15,2013-02-01 09:40:00,
2013-02-01 04:50:00,27.7,10.5,29.66,NW,313,4.0,4.0,48,0.00,,,0.00,Wunderground v.1.15,2013-02-01 09:50:00,
2013-02-01 05:00:00,27.7,10.5,29.66,North,350,5.0,5.0,48,0.00,,,0.00,Wunderground v.1.15,2013-02-01 10:00:00,
2013-02-01 05:20:00,27.4,10.3,29.66,WNW,296,4.0,4.0,48,0.00,,,0.00,Wunderground v.1.15,2013-02-01 10:20:00,
2013-02-01 05:30:00,27.4,10.3,29.66,NW,313,4.0,13.0,48,0.00,,,0.00,Wunderground v.1.15,2013-02-01 10:30:00,
2013-02-01 05:40:00,27.4,10.3,29.67,NW,307,5.0,13.0,48,0.00,,,0.00,Wunderground v.1.15,2013-02-01 10:40:00,
2013-02-01 05:50:00,27.5,9.9,29.67,West,277,5.0,5.0,47,0.00,,,0.00,Wunderground v.1.15,2013-02-01 10:50:00,
2013-02-01 05:59:00,27.3,10.6,29.67,West,275,4.0,14.0,49,0.00,,,0.00,Wunderground v.1.15,2013-02-01 10:59:00,
2013-02-01 06:19:00,27.1,10.4,29.68,West,259,3.0,7.0,49,0.00,,,0.00,Wunderground v.1.15,2013-02-01 11:19:00,
2013-02-01 06:30:00,26.9,10.7,29.69,NW,319,3.0,8.0,50,0.00,,,0.00,Wunderground v.1.15,2013-02-01 11:30:00,
2013-02-01 06:40:00,27.1,11.3,29.69,West,271,6.0,6.0,51,0.00,,,0.00,Wunderground v.1.15,2013-02-01 11:40:00,
2013-02-01 06:50:00,27.0,11.7,29.69,West,266,4.0,7.0,52,0.00,,,0.00,Wunderground v.1.15,2013-02-01 11:50:00,
2013-02-01 07:00:00,26.8,11.9,29.70,West,269,4.0,4.0,53,0.00,,,0.00,Wunderground v.1.15,2013-02-01 12:00:00,
2013-02-01 07:09:00,26.6,12.6,29.71,WSW,241,2.0,2.0,55,0.00,,,0.00,Wunderground v.1.15,2013-02-01 12:09:00,
2013-02-01 07:20:00,26.4,12.4,29.72,West,271,3.0,3.0,55,0.00,,,0.00,Wunderground v.1.15,2013-02-01 12:20:00,
2013-02-01 07:30:00,26.3,12.7,29.72,WSW,250,2.0,7.0,56,0.00,,,0.00,Wunderground v.1.15,2013-02-01 12:30:00,
2013-02-01 07:40:00,26.5,12.9,29.73,West,259,4.0,4.0,56,0.00,,,0.00,Wunderground v.1.15,2013-02-01 12:40:00,
2013-02-01 07:50:00,26.7,12.7,29.74,ENE,73,3.0,3.0,55,0.00,,,0.00,Wunderground v.1.15,2013-02-01 12:50:00,
2013-02-01 08:00:00,27.1,12.6,29.74,West,260,4.0,11.0,54,0.00,,,0.00,Wunderground v.1.15,2013-02-01 13:00:00,
2013-02-01 08:10:00,27.5,12.6,29.75,WNW,296,5.0,5.0,53,0.00,,,0.00,Wunderground v.1.15,2013-02-01 13:10:00,
2013-02-01 08:20:00,27.8,12.4,29.76,WNW,282,4.0,5.0,52,0.00,,,0.00,Wunderground v.1.15,2013-02-01 13:20:00,
2013-02-01 08:30:00,28.0,11.7,29.76,WNW,296,5.0,5.0,50,0.00,,,0.00,Wunderground v.1.15,2013-02-01 13:30:00,
2013-02-01 08:39:00,28.3,11.6,29.76,WNW,286,4.0,4.0,49,0.00,,,0.00,Wunderground v.1.15,2013-02-01 13:39:00,
2013-02-01 08:50:00,28.5,11.3,29.77,NNW,339,4.0,4.0,48,0.00,,,0.00,Wunderground v.1.15,2013-02-01 13:50:00,
2013-02-01 09:00:00,28.6,10.9,29.77,WNW,284,4.0,4.0,47,0.00,,,0.00,Wunderground v.1.15,2013-02-01 14:00:00,
2013-02-01 09:10:00,28.6,9.9,29.78,West,259,5.0,6.0,45,0.00,,,0.00,Wunderground v.1.15,2013-02-01 14:10:00,
2013-02-01 09:20:00,28.7,9.5,29.78,NW,324,5.0,5.0,44,0.00,,,0.00,Wunderground v.1.15,2013-02-01 14:20:00,
2013-02-01 09:30:00,28.9,9.7,29.78,WNW,296,6.0,6.0,44,0.00,,,0.00,Wunderground v.1.15,2013-02-01 14:30:00,
2013-02-01 09:40:00,29.2,10.0,29.78,WSW,257,5.0,7.0,44,0.00,,,0.00,Wunderground v.1.15,2013-02-01 14:40:00,
2013-02-01 09:50:00,29.0,8.7,29.78,WNW,282,6.0,6.0,42,0.00,,,0.00,Wunderground v.1.15,2013-02-01 14:50:00,
2013-02-01 10:00:00,29.5,9.2,29.78,NW,324,6.0,6.0,42,0.00,,,0.00,Wunderground v.1.15,2013-02-01 15:00:00,
2013-02-01 10:10:00,30.1,9.2,29.78,NNW,337,6.0,8.0,41,0.00,,,0.00,Wunderground v.1.15,2013-02-01 15:10:00,
2013-02-01 10:19:00,29.7,8.8,29.78,NNW,327,7.0,10.0,41,0.00,,,0.00,Wunderground v.1.15,2013-02-01 15:19:00,
2013-02-01 10:30:00,29.4,8.0,29.78,NNW,331,8.0,11.0,40,0.00,,,0.00,Wunderground v.1.15,2013-02-01 15:30:00,
2013-02-01 10:40:00,29.5,8.7,29.77,NW,304,7.0,7.0,41,0.00,,,0.00,Wunderground v.1.15,2013-02-01 15:40:00,
2013-02-01 10:50:00,29.8,8.9,29.77,NW,321,6.0,6.0,41,0.00,,,0.00,Wunderground v.1.15,2013-02-01 15:50:00,
2013-02-01 11:00:00,30.5,9.6,29.77,North,5,5.0,5.0,41,0.00,,,0.00,Wunderground v.1.15,2013-02-01 16:00:00,
2013-02-01 11:10:00,30.3,8.8,29.77,SW,235,5.0,5.0,40,0.00,,,0.00,Wunderground v.1.15,2013-02-01 16:10:00,
2013-02-01 11:20:00,29.9,7.9,29.77,West,273,6.0,6.0,39,0.00,,,0.00,Wunderground v.1.15,2013-02-01 16:20:00,
2013-02-01 11:30:00,30.3,9.4,29.78,WNW,292,5.0,10.0,41,0.00,,,0.00,Wunderground v.1.15,2013-02-01 16:30:00,
2013-02-01 11:40:00,30.7,9.2,29.78,West,280,5.0,5.0,40,0.00,,,0.00,Wunderground v.1.15,2013-02-01 16:40:00,
2013-02-01 11:50:00,31.2,9.1,29.77,WNW,282,5.0,6.0,39,0.00,,,0.00,Wunderground v.1.15,2013-02-01 16:50:00,
2013-02-01 12:00:00,31.5,8.8,29.77,WSW,241,6.0,6.0,38,0.00,,,0.00,Wunderground v.1.15,2013-02-01 17:00:00,
2013-02-01 12:10:00,31.7,7.7,29.77,NW,317,4.0,10.0,36,0.00,,,0.00,Wunderground v.1.15,2013-02-01 17:10:00,
2013-02-01 12:20:00,31.3,8.0,29.77,WSW,257,6.0,9.0,37,0.00,,,0.00,Wunderground v.1.15,2013-02-01 17:20:00,
2013-02-01 12:29:00,30.9,7.6,29.77,WSW,245,6.0,6.0,37,0.00,,,0.00,Wunderground v.1.15,2013-02-01 17:29:00,
2013-02-01 12:40:00,31.3,8.6,29.76,WNW,289,5.0,11.0,38,0.00,,,0.00,Wunderground v.1.15,2013-02-01 17:40:00,
2013-02-01 12:49:00,30.8,6.9,29.75,NE,46,7.0,8.0,36,0.00,,,0.00,Wunderground v.1.15,2013-02-01 17:49:00,
2013-02-01 13:00:00,31.1,7.8,29.74,West,278,6.0,9.0,37,0.00,,,0.00,Wunderground v.1.15,2013-02-01 18:00:00,
2013-02-01 13:10:00,31.8,7.8,29.73,North,360,5.0,5.0,36,0.00,,,0.00,Wunderground v.1.15,2013-02-01 18:10:00,
2013-02-01 13:20:00,32.1,7.5,29.74,NW,307,5.0,5.0,35,0.00,,,0.00,Wunderground v.1.15,2013-02-01 18:20:00,
2013-02-01 13:30:00,32.3,8.3,29.75,West,267,6.0,14.0,36,0.00,,,0.00,Wunderground v.1.15,2013-02-01 18:30:00,
2013-02-01 13:40:00,31.5,6.9,29.76,WSW,238,8.0,8.0,35,0.00,,,0.00,Wunderground v.1.15,2013-02-01 18:40:00,
2013-02-01 13:50:00,31.5,6.9,29.75,NW,321,6.0,6.0,35,0.00,,,0.00,Wunderground v.1.15,2013-02-01 18:50:00,
2013-02-01 14:00:00,31.6,7.7,29.75,WNW,291,6.0,6.0,36,0.00,,,0.00,Wunderground v.1.15,2013-02-01 19:00:00,
2013-02-01 14:10:00,31.6,7.7,29.76,NE,49,6.0,6.0,36,0.00,,,0.00,Wunderground v.1.15,2013-02-01 19:10:00,
2013-02-01 14:20:00,31.2,7.3,29.76,West,274,3.0,4.0,36,0.00,,,0.00,Wunderground v.1.15,2013-02-01 19:20:00,
2013-02-01 14:30:00,30.8,6.9,29.77,WNW,303,5.0,6.0,36,0.00,,,0.00,Wunderground v.1.15,2013-02-01 19:30:00,
2013-02-01 14:40:00,30.1,7.5,29.77,WSW,256,6.0,7.0,38,0.00,,,0.00,Wunderground v.1.15,2013-02-01 19:40:00,
2013-02-01 14:50:00,30.4,7.8,29.78,WNW,299,5.0,7.0,38,0.00,,,0.00,Wunderground v.1.15,2013-02-01 19:50:00,
2013-02-01 15:00:00,29.7,7.7,29.79,NNW,329,4.0,4.0,39,0.00,,,0.00,Wunderground v.1.15,2013-02-01 20:00:00,
2013-02-01 15:10:00,29.4,7.5,29.79,WNW,300,5.0,5.0,39,0.00,,,0.00,Wunderground v.1.15,2013-02-01 20:10:00,
2013-02-01 15:20:00,29.5,8.1,29.79,NW,306,4.0,4.0,40,0.00,,,0.00,Wunderground v.1.15,2013-02-01 20:20:00,
2013-02-01 15:30:00,30.4,8.4,29.80,West,273,3.0,5.0,39,0.00,,,0.00,Wunderground v.1.15,2013-02-01 20:30:00,
2013-02-01 15:40:00,29.9,7.3,29.80,West,269,5.0,7.0,38,0.00,,,0.00,Wunderground v.1.15,2013-02-01 20:40:00,
2013-02-01 15:50:00,29.6,7.1,29.81,West,261,4.0,4.0,38,0.00,,,0.00,Wunderground v.1.15,2013-02-01 20:50:00,
2013-02-01 16:00:00,29.3,8.5,29.82,WNW,286,4.0,4.0,41,0.00,,,0.00,Wunderground v.1.15,2013-02-01 21:00:00,
2013-02-01 16:10:00,29.0,7.7,29.82,NNW,344,5.0,5.0,40,0.00,,,0.00,Wunderground v.1.15,2013-02-01 21:10:00,
2013-02-01 16:19:00,28.9,8.1,29.83,WNW,294,3.0,5.0,41,0.00,,,0.00,Wunderground v.1.15,2013-02-01 21:19:00,
2013-02-01 16:30:00,28.8,7.5,29.84,WNW,284,5.0,5.0,40,0.00,,,0.00,Wunderground v.1.15,2013-02-01 21:30:00,
2013-02-01 16:40:00,28.6,7.3,29.84,NNW,335,5.0,5.0,40,0.00,,,0.00,Wunderground v.1.15,2013-02-01 21:40:00,
2013-02-01 16:50:00,28.5,7.8,29.85,SW,227,2.0,4.0,41,0.00,,,0.00,Wunderground v.1.15,2013-02-01 21:50:00,
2013-02-01 17:00:00,28.4,8.2,29.86,West,279,4.0,7.0,42,0.00,,,0.00,Wunderground v.1.15,2013-02-01 22:00:00,
2013-02-01 17:10:00,28.2,6.9,29.87,West,277,4.0,6.0,40,0.00,,,0.00,Wunderground v.1.15,2013-02-01 22:10:00,
2013-02-01 17:20:00,28.0,6.8,29.88,SW,230,5.0,5.0,40,0.00,,,0.00,Wunderground v.1.15,2013-02-01 22:20:00,
2013-02-01 17:30:00,27.8,7.1,29.89,NW,315,5.0,5.0,41,0.00,,,0.00,Wunderground v.1.15,2013-02-01 22:30:00,
2013-02-01 17:40:00,27.6,7.5,29.90,NW,304,3.0,3.0,42,0.00,,,0.00,Wunderground v.1.15,2013-02-01 22:40:00,
2013-02-01 17:50:00,27.3,7.2,29.91,NNW,329,3.0,6.0,42,0.00,,,0.00,Wunderground v.1.15,2013-02-01 22:50:00,
2013-02-01 18:00:00,27.1,7.5,29.92,NW,307,2.0,2.0,43,0.00,,,0.00,Wunderground v.1.15,2013-02-01 23:00:00,
2013-02-01 18:10:00,26.9,6.8,29.93,West,265,3.0,8.0,42,0.00,,,0.00,Wunderground v.1.15,2013-02-01 23:10:00,
2013-02-01 18:20:00,26.5,6.5,29.94,North,11,3.0,3.0,42,0.00,,,0.00,Wunderground v.1.15,2013-02-01 23:20:00,
2013-02-01 18:30:00,26.3,6.8,29.95,North,355,3.0,3.0,43,0.00,,,0.00,Wunderground v.1.15,2013-02-01 23:30:00,
2013-02-01 18:40:00,26.0,7.0,29.95,West,273,2.0,4.0,44,0.00,,,0.00,Wunderground v.1.15,2013-02-01 23:40:00,
2013-02-01 18:50:00,25.8,7.4,29.96,WNW,292,1.0,2.0,45,0.00,,,0.00,Wunderground v.1.15,2013-02-01 23:50:00,
2013-02-01 19:00:00,25.8,7.4,29.97,WNW,292,2.0,2.0,45,0.00,,,0.00,Wunderground v.1.15,2013-02-02 00:00:00,
2013-02-01 19:10:00,25.8,7.4,29.97,West,271,2.0,2.0,45,0.00,,,0.00,Wunderground v.1.15,2013-02-02 00:10:00,
2013-02-01 19:20:00,25.7,7.7,29.98,West,277,1.0,1.0,46,0.00,,,0.00,Wunderground v.1.15,2013-02-02 00:20:00,
2013-02-01 19:30:00,25.6,7.7,29.98,WSW,256,3.0,3.0,46,0.00,,,0.00,Wunderground v.1.15,2013-02-02 00:30:00,
2013-02-01 19:40:00,25.6,8.1,29.99,West,266,4.0,4.0,47,0.00,,,0.00,Wunderground v.1.15,2013-02-02 00:40:00,
2013-02-01 19:50:00,25.5,8.5,29.99,NW,323,3.0,3.0,48,0.00,,,0.00,Wunderground v.1.15,2013-02-02 00:50:00,
2013-02-01 20:00:00,25.3,8.8,29.99,WNW,288,4.0,4.0,49,0.00,,,0.00,Wunderground v.1.15,2013-02-02 01:00:00,
2013-02-01 20:10:00,25.2,8.7,30.00,West,270,4.0,5.0,49,0.00,,,0.00,Wunderground v.1.15,2013-02-02 01:10:00,
2013-02-01 20:20:00,25.1,8.1,30.00,WNW,299,4.0,4.0,48,0.00,,,0.00,Wunderground v.1.15,2013-02-02 01:20:00,
2013-02-01 20:30:00,25.1,8.6,30.01,NW,307,3.0,8.0,49,0.00,,,0.00,Wunderground v.1.15,2013-02-02 01:30:00,
2013-02-01 20:40:00,24.9,7.0,30.01,SW,214,5.0,5.0,46,0.00,,,0.00,Wunderground v.1.15,2013-02-02 01:40:00,
2013-02-01 20:50:00,24.5,5.7,30.02,NNW,344,4.0,6.0,44,0.00,,,0.00,Wunderground v.1.15,2013-02-02 01:50:00,
2013-02-01 21:00:00,24.3,5.0,30.02,West,279,5.0,9.0,43,0.00,,,0.00,Wunderground v.1.15,2013-02-02 02:00:00,
2013-02-01 21:10:00,24.1,5.3,30.02,West,261,4.0,4.0,44,0.00,,,0.00,Wunderground v.1.15,2013-02-02 02:10:00,
2013-02-01 21:20:00,23.8,5.0,30.03,SW,229,3.0,4.0,44,0.00,,,0.00,Wunderground v.1.15,2013-02-02 02:20:00,
2013-02-01 21:30:00,23.7,5.9,30.03,WNW,303,4.0,4.0,46,0.00,,,0.00,Wunderground v.1.15,2013-02-02 02:30:00,
2013-02-01 21:40:00,23.4,6.1,30.03,West,275,3.0,5.0,47,0.00,,,0.00,Wunderground v.1.15,2013-02-02 02:40:00,
2013-02-01 21:50:00,23.3,6.5,30.04,West,275,4.0,4.0,48,0.00,,,0.00,Wunderground v.1.15,2013-02-02 02:50:00,
2013-02-01 22:00:00,23.1,5.8,30.04,WNW,294,5.0,5.0,47,0.00,,,0.00,Wunderground v.1.15,2013-02-02 03:00:00,
2013-02-01 22:10:00,22.9,6.1,30.05,WNW,300,4.0,4.0,48,0.00,,,0.00,Wunderground v.1.15,2013-02-02 03:10:00,
2013-02-01 22:19:00,22.8,5.6,30.05,West,279,4.0,4.0,47,0.00,,,0.00,Wunderground v.1.15,2013-02-02 03:19:00,
2013-02-01 22:30:00,22.6,5.4,30.05,WNW,298,3.0,3.0,47,0.00,,,0.00,Wunderground v.1.15,2013-02-02 03:30:00,
2013-02-01 22:40:00,22.4,5.2,30.05,NNE,30,3.0,4.0,47,0.00,,,0.00,Wunderground v.1.15,2013-02-02 03:40:00,
2013-02-01 22:50:00,22.3,5.1,30.06,WNW,300,2.0,3.0,47,0.00,,,0.00,Wunderground v.1.15,2013-02-02 03:50:00,
2013-02-01 23:00:00,22.0,5.7,30.06,NW,315,2.0,3.0,49,0.00,,,0.00,Wunderground v.1.15,2013-02-02 04:00:00,
2013-02-01 23:10:00,21.7,5.9,30.06,WSW,252,2.0,2.0,50,0.00,,,0.00,Wunderground v.1.15,2013-02-02 04:10:00,
2013-02-01 23:20:00,21.6,5.4,30.07,NW,305,3.0,5.0,49,0.00,,,0.00,Wunderground v.1.15,2013-02-02 04:20:00,
2013-02-01 23:40:00,21.6,4.9,30.07,WNW,290,3.0,8.0,48,0.00,,,0.00,Wunderground v.1.15,2013-02-02 04:40:00,
2013-02-01 23:50:00,21.7,5.5,30.08,NW,322,5.0,5.0,49,0.00,,,0.00,Wunderground v.1.15,2013-02-02 04:50:00,
2013-02-01 23:59:00,21.6,4.9,30.08,WNW,292,3.0,3.0,48,0.00,,,0.00,Wunderground v.1.15,2013-02-02 04:59:00,